LEAL/ALC METAR and TAF weather

Enter ICAO airport designator
Station Type Date Time Source
LEAL METAR 2019/08/19 07:30 UTC NOAA

LEAL 190730Z 02005KT 350V050 9999 SCT010 27/19 Q1013 NOSIG


Station Type Date Time Source
LEAL Decoded METAR 2019/08/19 07:30 UTC NOAA

Station name not available
Aug 19, 2019 - 03:30 AM EDT / 2019.08.19 0730 UTC
Wind: from the NNE (020 degrees) at 6 MPH (5 KT) (direction variable):0
Visibility: greater than 7 mile(s):0
Sky conditions: partly cloudy
Temperature: 80 F (27 C)
Dew Point: 66 F (19 C)
Relative Humidity: 61%
Pressure (altimeter): 29.91 in. Hg (1013 hPa)
ob: LEAL 190730Z 02005KT 350V050 9999 SCT010 27/19 Q1013 NOSIG
cycle: 7

Station Type Date Time Source
LEAL TAF 2019/08/19 06:27 UTC NOAA

TAF TAF LEAL 190500Z 1906/2006 VRB03KT 9999 FEW014 TX32/1912Z TN22/1906Z
BECMG 1908/1910 10012KT PROB30
TEMPO 1918/1924 4000 SHRA FEW015TCU BKN020

Example: see airport list